Hauptseite
METAR-TAF:

METAR-TAF

Flughäfen :

Flughafen Niamtougou

Niamtougou, Togo

Breite: 09-46N, Länge: 001-06E, Höhe: 342 m

Beobachtung

Neuester Wetterbericht von vor 2 Stunden und 52 Minuten, um 18:00 UTC
Wind 5 kt aus West/Südwest
Temperatur 26°C
Luftfeuchtigkeit 74%
Luftdruck 1015 hPa
Sichtweite 10 km oder mehr
Leicht bewölkt in der Höhe von 600 ft

METAR: DXNG 121800Z 25005KT 9999 FEW006 26/21 Q1015

Zeit: 20:52 (20:52 UTC)

Prognose

Neuester Wetterbericht von vor 3 Stunden und 52 Minuten, um 17:00 UTC
Gültige Prognose vom 12 um 18 UTC bis 13 um 18 UTC
Wind 6 kt aus West
Sichtweite 10 km oder mehr
Aufgelockert bewölkt in der Höhe von 600 ft
Wahrscheinlichkeit 30% :
Zeitweise
vom 12 um 18 UTC bis 12 um 21 UTC
Gewitter,

TAF: DXNG 121700Z 1218/1318 26006KT 9999 SCT006 PROB30 TEMPO 1218/1221 TS

Wetterbeobachtungen und Prognosen von mehr als 4000 Flughäfen (METAR und TAF Bericht).

Die verfügbaren Stationen werden durch gelbe und rote Markierungen auf der Karte dargestellt.

Führen Sie die Maus auf sie, um den Namen der Station zu sehen.

Darauf klicken, um die Beobachtung von Wetterbeobachtungen und Prognosen zu sehen.

Um die Karte zu ändern : klicken Sie auf den grünen Tasten mit einem schwarzen Kreuz Zum Vergrößern, auf den grünen Button mit einem Gedankenstrich zu verkleinern, oder auf die grünen Pfeile für benachbarte Karten.


METAR-TAF: